createdAt,value
2019-06-10T00:00:50.680Z,4.83
2019-06-10T00:03:20.711Z,4.90
2019-06-10T00:05:51.773Z,4.80
2019-06-10T00:08:22.278Z,4.22
2019-06-10T00:10:52.594Z,4.87
2019-06-10T00:13:22.868Z,4.83
2019-06-10T00:15:53.297Z,4.90
2019-06-10T00:18:38.417Z,4.70
2019-06-10T00:20:57.178Z,4.80
2019-06-10T00:23:27.692Z,5.40
2019-06-10T00:26:01.280Z,5.37
2019-06-10T00:28:31.136Z,5.20
2019-06-10T00:31:03.682Z,5.70
2019-06-10T00:33:33.873Z,5.70
2019-06-10T00:36:07.027Z,5.90
2019-06-10T00:38:36.429Z,6.07
2019-06-10T00:41:08.884Z,5.80
2019-06-10T00:43:41.160Z,5.93
2019-06-10T00:46:13.224Z,6.10
2019-06-10T00:48:43.656Z,5.87
2019-06-10T00:51:14.111Z,6.33
2019-06-10T00:53:44.533Z,6.70
2019-06-10T00:56:14.911Z,7.00
2019-06-10T00:58:45.467Z,5.80
2019-06-10T01:01:15.775Z,6.10
2019-06-10T01:03:46.151Z,6.03
2019-06-10T01:06:16.829Z,5.90
2019-06-10T01:08:47.386Z,6.87
2019-06-10T01:11:23.639Z,6.37
2019-06-10T01:13:50.865Z,6.67
2019-06-10T01:16:21.850Z,6.93
2019-06-10T01:18:53.603Z,6.83
2019-06-10T01:21:24.217Z,7.42
2019-06-10T01:23:54.708Z,6.83
2019-06-10T01:26:25.209Z,6.42
2019-06-10T01:28:55.807Z,6.73
2019-06-10T01:31:26.420Z,6.80
2019-06-10T01:33:56.835Z,7.07
2019-06-10T01:36:27.154Z,6.55
2019-06-10T01:39:06.988Z,6.70
2019-06-10T01:41:46.711Z,7.10
2019-06-10T01:44:17.709Z,6.58
2019-06-10T01:46:48.016Z,6.57
2019-06-10T01:49:18.677Z,6.93
2019-06-10T01:51:51.581Z,6.80
2019-06-10T01:54:22.134Z,6.90
2019-06-10T01:56:52.576Z,6.90
2019-06-10T01:59:22.943Z,6.47
2019-06-10T02:02:19.361Z,5.87
2019-06-10T02:04:51.686Z,7.27
2019-06-10T02:07:23.147Z,7.50
2019-06-10T02:09:54.077Z,7.67
2019-06-10T02:12:24.566Z,8.03
2019-06-10T02:14:55.189Z,7.80
2019-06-10T02:17:25.553Z,7.30
2019-06-10T02:19:55.910Z,7.73
2019-06-10T02:22:26.518Z,8.77
2019-06-10T02:24:57.153Z,7.90
2019-06-10T02:27:27.779Z,7.83
2019-06-10T02:29:58.447Z,7.20
2019-06-10T02:32:36.878Z,8.10
2019-06-10T02:35:08.600Z,7.27
2019-06-10T02:37:37.903Z,8.73
2019-06-10T02:40:06.606Z,6.90
2019-06-10T02:42:43.468Z,8.63
2019-06-10T02:45:18.005Z,9.07
2019-06-10T02:47:45.511Z,8.40
2019-06-10T02:50:19.791Z,8.87
2019-06-10T02:52:48.294Z,9.57
2019-06-10T02:55:20.329Z,9.05
2019-06-10T02:57:53.290Z,9.53
2019-06-10T03:00:36.068Z,9.20
2019-06-10T03:02:55.008Z,8.80
2019-06-10T03:05:30.727Z,9.75
2019-06-10T03:07:57.368Z,9.23
2019-06-10T03:10:32.498Z,9.33
2019-06-10T03:13:01.814Z,9.93
2019-06-10T03:15:32.471Z,8.57
2019-06-10T03:18:02.843Z,9.43
2019-06-10T03:20:33.243Z,9.77
2019-06-10T03:23:03.426Z,9.77
2019-06-10T03:25:33.719Z,9.50
2019-06-10T03:28:04.077Z,9.10
2019-06-10T03:30:47.119Z,9.30
2019-06-10T03:33:06.798Z,9.85
2019-06-10T03:35:37.082Z,9.70
2019-06-10T03:38:07.442Z,10.10
2019-06-10T03:40:37.788Z,9.53
2019-06-10T03:43:08.142Z,10.10
2019-06-10T03:45:38.337Z,10.67
2019-06-10T03:48:08.726Z,9.80
2019-06-10T03:50:39.069Z,9.50
2019-06-10T03:53:09.402Z,8.60
2019-06-10T03:55:42.218Z,9.27
2019-06-10T03:58:12.595Z,8.53
2019-06-10T04:00:43.191Z,9.77
2019-06-10T04:03:13.543Z,9.87
2019-06-10T04:05:43.904Z,9.60
2019-06-10T04:08:14.284Z,9.50
2019-06-10T04:10:44.660Z,9.58
2019-06-10T04:13:15.086Z,8.63
2019-06-10T04:15:45.471Z,9.30
2019-06-10T04:18:15.806Z,9.75
2019-06-10T04:20:46.094Z,10.00
2019-06-10T04:23:17.632Z,10.35
2019-06-10T04:25:48.033Z,8.97
2019-06-10T04:28:19.735Z,10.97
2019-06-10T04:30:50.177Z,9.57
2019-06-10T04:33:22.868Z,10.10
2019-06-10T04:35:52.564Z,10.10
2019-06-10T04:38:25.726Z,9.90
2019-06-10T04:40:55.302Z,10.63
2019-06-10T04:43:26.344Z,9.33
2019-06-10T04:45:57.630Z,9.30
2019-06-10T04:48:29.288Z,10.10
2019-06-10T04:51:02.450Z,9.20
2019-06-10T04:53:32.873Z,10.70
2019-06-10T04:56:03.803Z,10.20
2019-06-10T04:58:34.036Z,10.20
2019-06-10T05:01:04.409Z,10.73
2019-06-10T05:03:34.687Z,10.07
2019-06-10T05:06:04.975Z,9.77
2019-06-10T05:08:35.327Z,10.20
2019-06-10T05:11:05.673Z,9.63
2019-06-10T05:13:35.928Z,9.60
2019-06-10T05:16:06.867Z,10.23
2019-06-10T05:18:37.204Z,9.80
2019-06-10T05:21:07.852Z,9.70
2019-06-10T05:23:38.310Z,9.40
2019-06-10T05:26:08.915Z,9.57
2019-06-10T05:28:39.547Z,9.07
2019-06-10T05:33:37.363Z,8.33
2019-06-10T05:36:07.919Z,8.47
2019-06-10T05:38:38.364Z,8.20
2019-06-10T05:41:08.977Z,7.83
2019-06-10T05:43:39.318Z,8.00
2019-06-10T05:46:09.742Z,7.10
2019-06-10T05:48:40.298Z,7.17
2019-06-10T05:51:12.422Z,6.60
2019-06-10T05:53:45.751Z,7.12
2019-06-10T05:56:15.375Z,5.80
2019-06-10T05:58:45.901Z,5.70
2019-06-10T06:01:16.525Z,6.25
2019-06-10T06:03:47.145Z,6.10
2019-06-10T06:06:17.554Z,5.87
2019-06-10T06:08:47.809Z,5.57
2019-06-10T06:11:18.126Z,5.87
2019-06-10T06:13:48.405Z,6.10
2019-06-10T06:16:18.676Z,5.70
2019-06-10T06:18:49.038Z,5.60
2019-06-10T06:21:26.577Z,5.43
2019-06-10T06:23:52.791Z,6.17
2019-06-10T06:26:23.947Z,6.03
2019-06-10T06:28:54.540Z,5.77
2019-06-10T06:31:26.062Z,5.90
2019-06-10T06:33:56.530Z,6.23
2019-06-10T06:36:26.839Z,6.43
2019-06-10T06:38:57.191Z,6.07
2019-06-10T06:41:27.575Z,6.40
2019-06-10T06:43:57.819Z,5.67
2019-06-10T06:46:28.124Z,5.70
2019-06-10T06:48:58.576Z,6.10
2019-06-10T06:51:38.059Z,5.83
2019-06-10T06:54:03.267Z,6.28
2019-06-10T06:56:36.148Z,6.20
2019-06-10T06:59:05.461Z,6.40
2019-06-10T07:01:37.734Z,6.30
2019-06-10T07:04:08.233Z,6.70
2019-06-10T07:06:40.362Z,5.73
2019-06-10T07:09:13.511Z,5.97
2019-06-10T07:11:45.610Z,6.73
2019-06-10T07:14:16.086Z,6.10
2019-06-10T07:16:46.896Z,7.00
2019-06-10T07:19:17.304Z,6.53
2019-06-10T07:22:05.375Z,5.07
2019-06-10T07:24:19.973Z,5.40
2019-06-10T07:26:54.715Z,5.60
2019-06-10T07:29:22.779Z,5.10
2019-06-10T07:31:53.824Z,6.13
2019-06-10T07:34:26.037Z,5.45
2019-06-10T07:36:56.325Z,5.47
2019-06-10T07:39:26.688Z,5.13
2019-06-10T07:41:57.062Z,5.03
2019-06-10T07:44:27.443Z,5.27
2019-06-10T07:46:57.754Z,4.90
2019-06-10T07:49:33.480Z,5.27
2019-06-10T07:52:14.951Z,5.50
2019-06-10T07:54:36.273Z,5.43
2019-06-10T07:57:07.112Z,5.47
2019-06-10T07:59:37.453Z,5.57
2019-06-10T08:02:07.802Z,5.23
2019-06-10T08:04:38.198Z,5.40
2019-06-10T08:07:08.621Z,5.33
2019-06-10T08:09:39.133Z,5.20
2019-06-10T08:12:09.550Z,5.00
2019-06-10T08:14:42.281Z,5.00
2019-06-10T08:17:12.940Z,5.12
2019-06-10T08:19:49.050Z,5.03
2019-06-10T08:22:29.947Z,4.70
2019-06-10T08:24:47.830Z,4.57
2019-06-10T08:27:18.838Z,4.97
2019-06-10T08:29:51.166Z,5.13
2019-06-10T08:32:21.315Z,4.80
2019-06-10T08:34:53.017Z,5.00
2019-06-10T08:37:23.661Z,5.30
2019-06-10T08:39:53.966Z,5.23
2019-06-10T08:42:24.363Z,5.13
2019-06-10T08:44:54.739Z,5.03
2019-06-10T08:47:25.192Z,4.75
2019-06-10T08:49:57.529Z,5.00
2019-06-10T08:52:27.854Z,5.53
2019-06-10T08:54:58.204Z,5.20
2019-06-10T08:57:28.552Z,5.30
2019-06-10T08:59:58.865Z,4.97
2019-06-10T09:02:29.209Z,4.80
2019-06-10T09:04:59.494Z,4.20
2019-06-10T09:07:32.179Z,5.03
2019-06-10T09:10:03.015Z,5.60
2019-06-10T09:12:36.631Z,5.33
2019-06-10T09:15:06.079Z,5.17
2019-06-10T09:17:36.548Z,5.60
2019-06-10T09:20:08.171Z,4.90
2019-06-10T09:22:39.811Z,5.30
2019-06-10T09:25:13.608Z,5.17
2019-06-10T09:27:47.479Z,6.40
2019-06-10T09:30:16.347Z,6.10
2019-06-10T09:32:51.143Z,5.70
2019-06-10T09:35:23.359Z,5.12
2019-06-10T09:37:55.675Z,5.47
2019-06-10T09:40:28.404Z,5.47
2019-06-10T09:42:58.895Z,5.13
2019-06-10T09:45:29.297Z,4.70
2019-06-10T09:48:01.121Z,4.70
2019-06-10T09:50:48.556Z,4.70
2019-06-10T09:53:28.955Z,4.80
2019-06-10T09:55:49.697Z,4.77
2019-06-10T09:58:18.787Z,5.17
2019-06-10T10:00:56.967Z,5.00
2019-06-10T10:03:24.048Z,5.08
2019-06-10T10:06:08.116Z,5.20
2019-06-10T10:08:26.520Z,4.97
2019-06-10T10:10:58.950Z,4.73
2019-06-10T10:13:29.241Z,5.10
2019-06-10T10:15:59.629Z,4.73
2019-06-10T10:18:32.604Z,4.67
2019-06-10T10:21:03.790Z,4.40
2019-06-10T10:23:50.141Z,4.30
2019-06-10T10:26:07.036Z,4.20
2019-06-10T10:28:37.486Z,4.17
2019-06-10T10:31:07.890Z,4.67
2019-06-10T10:33:38.334Z,4.93
2019-06-10T10:36:08.727Z,3.93
2019-06-10T10:38:39.066Z,4.10
2019-06-10T10:41:09.453Z,3.73
2019-06-10T10:43:39.836Z,4.30
2019-06-10T10:46:13.490Z,3.60
2019-06-10T10:48:42.951Z,3.97
2019-06-10T10:51:13.568Z,4.00
2019-06-10T10:53:48.405Z,4.03
2019-06-10T10:56:16.038Z,3.58
2019-06-10T10:58:47.669Z,3.87
2019-06-10T11:01:18.542Z,3.58
2019-06-10T11:03:50.077Z,3.93
2019-06-10T11:06:23.177Z,4.25
2019-06-10T11:08:55.845Z,4.43
2019-06-10T11:11:27.619Z,4.17
2019-06-10T11:14:00.202Z,4.20
2019-06-10T11:16:33.045Z,4.07
2019-06-10T11:19:03.450Z,4.00
2019-06-10T11:21:33.836Z,4.33
2019-06-10T11:24:04.882Z,3.97
2019-06-10T11:26:35.407Z,4.20
2019-06-10T11:29:07.017Z,4.07
2019-06-10T11:31:37.419Z,3.50
2019-06-10T11:34:07.828Z,4.10
2019-06-10T11:36:38.232Z,3.93
2019-06-10T11:39:09.708Z,3.60
2019-06-10T11:41:40.134Z,3.50
2019-06-10T11:44:10.561Z,3.60
2019-06-10T11:46:42.970Z,3.37
2019-06-10T11:49:13.036Z,3.00
2019-06-10T11:51:43.396Z,3.65
2019-06-10T11:54:15.807Z,3.62
2019-06-10T11:56:47.666Z,3.30
2019-06-10T11:59:18.257Z,3.75
2019-06-10T12:01:50.270Z,3.40
2019-06-10T12:04:21.642Z,3.80
2019-06-10T12:06:53.125Z,3.60
2019-06-10T12:09:23.551Z,3.30
2019-06-10T12:11:56.238Z,3.30
2019-06-10T12:14:27.187Z,3.50
2019-06-10T12:17:24.920Z,3.40
2019-06-10T12:19:29.716Z,3.03
2019-06-10T12:22:06.932Z,3.20
2019-06-10T12:24:33.949Z,3.20
2019-06-10T12:27:05.267Z,2.87
2019-06-10T12:29:35.692Z,3.40
2019-06-10T12:32:07.730Z,3.53
2019-06-10T12:34:38.371Z,3.40
2019-06-10T12:37:15.762Z,3.40
2019-06-10T12:39:43.638Z,3.00
2019-06-10T12:42:14.425Z,3.98
2019-06-10T12:44:45.028Z,3.58
2019-06-10T12:47:15.533Z,3.37
2019-06-10T12:49:45.912Z,3.22
2019-06-10T12:52:16.464Z,4.30
2019-06-10T12:54:46.857Z,3.67
2019-06-10T12:57:18.158Z,4.47
2019-06-10T12:59:48.637Z,4.83
2019-06-10T13:02:24.737Z,4.85
2019-06-10T13:04:52.306Z,4.27
2019-06-10T13:07:24.544Z,4.42
2019-06-10T13:09:57.776Z,4.90
2019-06-10T13:12:33.241Z,4.30
2019-06-10T13:15:06.736Z,4.90
2019-06-10T13:17:35.168Z,5.10
2019-06-10T13:20:08.384Z,4.83
2019-06-10T13:22:38.900Z,4.83
2019-06-10T13:25:13.468Z,4.85
2019-06-10T13:27:43.934Z,4.70
2019-06-10T13:30:14.590Z,5.40
2019-06-10T13:32:45.021Z,5.13
2019-06-10T13:35:16.016Z,4.94
2019-06-10T13:37:46.377Z,4.37
2019-06-10T13:40:17.673Z,4.90
2019-06-10T13:42:48.694Z,4.50
2019-06-10T13:45:22.391Z,4.50
2019-06-10T13:47:53.069Z,4.50
2019-06-10T13:50:25.011Z,4.95
2019-06-10T13:52:55.799Z,4.70
2019-06-10T13:55:26.223Z,4.45
2019-06-10T13:57:56.615Z,4.70
2019-06-10T14:00:41.666Z,5.65
2019-06-10T14:03:00.032Z,4.90
2019-06-10T14:05:34.056Z,4.40
2019-06-10T14:08:05.304Z,5.20
2019-06-10T14:10:34.616Z,4.33
2019-06-10T14:13:07.936Z,4.10
2019-06-10T14:15:37.824Z,4.33
2019-06-10T14:18:10.088Z,3.87
2019-06-10T14:20:44.021Z,4.00
2019-06-10T14:23:17.398Z,3.98
2019-06-10T14:25:45.563Z,4.15
2019-06-10T14:28:37.788Z,4.57
2019-06-10T14:30:48.779Z,4.30
2019-06-10T14:33:19.142Z,4.17
2019-06-10T14:35:49.436Z,4.13
2019-06-10T14:38:22.031Z,3.62
2019-06-10T14:40:52.519Z,3.80
2019-06-10T14:43:23.614Z,3.83
2019-06-10T14:45:54.653Z,3.70
2019-06-10T14:48:24.934Z,3.60
2019-06-10T14:50:55.301Z,3.57
2019-06-10T14:53:25.570Z,3.52
2019-06-10T14:55:55.996Z,3.25
2019-06-10T14:58:26.341Z,3.33
2019-06-10T15:00:56.577Z,3.65
2019-06-10T15:03:27.964Z,3.50
2019-06-10T15:05:58.340Z,3.40
2019-06-10T15:08:28.891Z,3.50
2019-06-10T15:10:59.596Z,3.10
2019-06-10T15:13:32.603Z,2.90
2019-06-10T15:16:04.284Z,3.20
2019-06-10T15:18:36.275Z,3.17
2019-06-10T15:21:08.678Z,4.04
2019-06-10T15:23:39.274Z,3.70
2019-06-10T15:26:14.408Z,3.20
2019-06-10T15:28:44.121Z,3.58
2019-06-10T15:31:16.393Z,3.02
2019-06-10T15:33:46.989Z,3.40
2019-06-10T15:36:17.536Z,3.35
2019-06-10T15:38:47.797Z,2.83
2019-06-10T15:41:20.300Z,3.30
2019-06-10T15:43:50.301Z,3.22
2019-06-10T15:46:20.899Z,3.00
2019-06-10T15:48:53.850Z,3.50
2019-06-10T15:51:26.157Z,3.20
2019-06-10T15:53:55.940Z,2.72
2019-06-10T15:56:37.600Z,2.90
2019-06-10T15:58:58.287Z,3.20
2019-06-10T16:01:28.742Z,3.33
2019-06-10T16:03:59.108Z,3.80
2019-06-10T16:06:29.442Z,3.92
2019-06-10T16:08:59.854Z,3.85
2019-06-10T16:11:32.991Z,3.83
2019-06-10T16:14:04.012Z,4.13
2019-06-10T16:16:34.589Z,4.20
2019-06-10T16:19:05.340Z,3.70
2019-06-10T16:21:36.411Z,3.30
2019-06-10T16:24:07.536Z,3.50
2019-06-10T16:26:38.444Z,3.33
2019-06-10T16:29:08.903Z,3.27
2019-06-10T16:34:08.292Z,2.93
2019-06-10T16:36:38.701Z,3.10
2019-06-10T16:39:09.354Z,3.60
2019-06-10T16:41:39.770Z,3.83
2019-06-10T16:44:10.183Z,3.70
2019-06-10T16:46:42.928Z,3.30
2019-06-10T16:49:12.968Z,3.80
2019-06-10T16:51:43.339Z,4.30
2019-06-10T16:54:13.657Z,3.90
2019-06-10T16:56:43.891Z,3.97
2019-06-10T16:59:14.086Z,4.40
2019-06-10T17:01:44.515Z,3.90
2019-06-10T17:04:14.831Z,3.45
2019-06-10T17:06:45.138Z,3.83
2019-06-10T17:09:15.543Z,3.95
2019-06-10T17:11:45.822Z,3.60
2019-06-10T17:14:16.102Z,3.73
2019-06-10T17:16:46.567Z,4.17
2019-06-10T17:19:16.891Z,4.35
2019-06-10T17:21:47.161Z,5.20
2019-06-10T17:24:18.950Z,4.22
2019-06-10T17:26:49.251Z,4.27
2019-06-10T17:29:19.739Z,4.27
2019-06-10T17:31:50.031Z,4.40
2019-06-10T17:34:22.979Z,4.50
2019-06-10T17:36:53.850Z,3.93
2019-06-10T17:39:27.976Z,4.08
2019-06-10T17:41:58.830Z,4.35
2019-06-10T17:44:30.768Z,4.28
2019-06-10T17:47:02.507Z,3.98
2019-06-10T17:49:35.269Z,3.80
2019-06-10T17:52:06.988Z,3.80
2019-06-10T17:54:37.639Z,3.80
2019-06-10T17:57:08.095Z,3.95
2019-06-10T17:59:38.448Z,4.47
2019-06-10T18:02:09.127Z,4.37
2019-06-10T18:04:41.933Z,4.25
2019-06-10T18:07:13.081Z,4.38
2019-06-10T18:09:43.749Z,4.33
2019-06-10T18:12:14.345Z,4.40
2019-06-10T18:14:45.156Z,4.40
2019-06-10T18:17:15.886Z,4.10
2019-06-10T18:19:46.606Z,4.40
2019-06-10T18:22:17.420Z,4.08
2019-06-10T18:24:48.039Z,4.23
2019-06-10T18:27:18.755Z,4.60
2019-06-10T18:29:49.382Z,4.43
2019-06-10T18:32:22.477Z,4.62
2019-06-10T18:34:52.490Z,4.20
2019-06-10T18:37:23.345Z,5.80
2019-06-10T18:39:54.100Z,4.47
2019-06-10T18:42:26.478Z,4.58
2019-06-10T18:44:57.217Z,4.80
2019-06-10T18:47:27.776Z,5.17
2019-06-10T18:49:58.281Z,4.87
2019-06-10T18:52:32.653Z,5.20
2019-06-10T18:55:03.431Z,5.27
2019-06-10T18:57:36.163Z,5.63
2019-06-10T19:00:13.713Z,4.60
2019-06-10T19:02:41.084Z,5.20
2019-06-10T19:07:52.890Z,5.63
2019-06-10T19:10:24.362Z,6.07
2019-06-10T19:12:55.343Z,5.80
2019-06-10T19:15:25.874Z,5.10
2019-06-10T19:17:56.567Z,5.97
2019-06-10T19:20:27.318Z,5.55
2019-06-10T19:22:57.945Z,5.93
2019-06-10T19:25:28.482Z,5.57
2019-06-10T19:27:59.114Z,6.80
2019-06-10T19:30:33.490Z,7.40
2019-06-10T19:33:04.965Z,7.67
2019-06-10T19:35:36.984Z,7.53
2019-06-10T19:38:07.980Z,8.47
2019-06-10T19:40:38.537Z,8.30
2019-06-10T19:43:09.281Z,8.80
2019-06-10T19:45:42.443Z,10.07
2019-06-10T19:48:12.518Z,10.30
2019-06-10T19:50:48.128Z,8.60
2019-06-10T19:53:15.244Z,10.63
2019-06-10T19:55:46.122Z,10.40
2019-06-10T19:58:16.863Z,9.98
2019-06-10T20:00:51.122Z,10.87
2019-06-10T20:03:22.164Z,10.63
2019-06-10T20:08:34.577Z,11.00
2019-06-10T20:11:05.486Z,11.70
2019-06-10T20:13:36.476Z,11.40
2019-06-10T20:16:07.530Z,11.77
2019-06-10T20:18:38.280Z,11.70
2019-06-10T20:21:09.693Z,11.27
2019-06-10T20:23:42.726Z,13.33
2019-06-10T20:26:12.547Z,12.43
2019-06-10T20:28:43.776Z,13.70
2019-06-10T20:31:15.604Z,13.03
2019-06-10T20:33:46.184Z,16.77
2019-06-10T20:36:22.528Z,15.55
2019-06-10T20:38:50.633Z,15.57
2019-06-10T20:41:21.462Z,14.97
2019-06-10T20:43:56.051Z,13.47
2019-06-10T20:46:26.749Z,14.90
2019-06-10T20:48:57.414Z,13.87
2019-06-10T20:51:27.988Z,16.50
2019-06-10T20:53:58.822Z,17.07
2019-06-10T20:56:29.415Z,14.73
2019-06-10T20:59:00.039Z,16.10
2019-06-10T21:01:33.055Z,16.07
2019-06-10T21:04:03.817Z,17.97
2019-06-10T21:06:36.436Z,16.83
2019-06-10T21:09:10.123Z,18.83
2019-06-10T21:11:45.136Z,16.43
2019-06-10T21:14:12.970Z,17.60
2019-06-10T21:19:14.727Z,16.33
2019-06-10T21:21:47.176Z,19.70
2019-06-10T21:24:17.690Z,20.77
2019-06-10T21:26:49.718Z,17.03
2019-06-10T21:29:20.732Z,18.07
2019-06-10T21:31:54.505Z,17.87
2019-06-10T21:34:23.379Z,19.50
2019-06-10T21:36:54.337Z,17.63
2019-06-10T21:39:25.077Z,20.35
2019-06-10T21:41:55.968Z,17.30
2019-06-10T21:44:26.310Z,20.50
2019-06-10T21:46:56.704Z,20.33
2019-06-10T21:49:27.108Z,19.47
2019-06-10T21:51:57.438Z,21.03
2019-06-10T21:54:27.733Z,19.70
2019-06-10T21:56:58.008Z,21.57
2019-06-10T21:59:28.201Z,21.40
2019-06-10T22:01:58.462Z,22.10
2019-06-10T22:04:28.807Z,21.50
2019-06-10T22:06:59.145Z,21.90
2019-06-10T22:09:29.504Z,21.87
2019-06-10T22:11:59.761Z,22.70
2019-06-10T22:14:30.085Z,23.33
2019-06-10T22:17:03.592Z,21.47
2019-06-10T22:19:33.949Z,21.87
2019-06-10T22:22:04.361Z,24.30
2019-06-10T22:24:34.663Z,23.80
2019-06-10T22:27:05.506Z,23.07
2019-06-10T22:29:35.891Z,23.03
2019-06-10T22:32:07.098Z,24.52
2019-06-10T22:34:37.476Z,26.07
2019-06-10T22:37:07.863Z,23.97
2019-06-10T22:39:38.117Z,24.75
2019-06-10T22:42:08.366Z,24.83
2019-06-10T22:44:38.617Z,26.90
2019-06-10T22:47:08.983Z,24.50
2019-06-10T22:49:39.222Z,27.00
2019-06-10T22:52:09.611Z,25.83
2019-06-10T22:54:42.792Z,26.77
2019-06-10T22:57:12.985Z,25.10
2019-06-10T22:59:43.193Z,27.97
2019-06-10T23:02:13.473Z,30.50
2019-06-10T23:04:43.855Z,24.83
2019-06-10T23:07:14.233Z,22.22
2019-06-10T23:09:44.605Z,25.60
2019-06-10T23:12:14.951Z,24.37
2019-06-10T23:14:45.260Z,22.97
2019-06-10T23:17:15.649Z,25.48
2019-06-10T23:19:46.005Z,25.90
2019-06-10T23:22:16.288Z,27.42
2019-06-10T23:24:46.656Z,22.30
2019-06-10T23:27:17.049Z,21.53
2019-06-10T23:29:47.347Z,19.07
2019-06-10T23:32:17.651Z,18.05
2019-06-10T23:34:47.994Z,16.85
2019-06-10T23:37:18.350Z,13.98
2019-06-10T23:39:48.645Z,13.87
2019-06-10T23:42:18.937Z,12.57
2019-06-10T23:44:49.122Z,11.67
2019-06-10T23:47:19.426Z,12.07
2019-06-10T23:49:49.694Z,11.50
2019-06-10T23:52:22.050Z,10.48
2019-06-10T23:54:53.231Z,10.00
2019-06-10T23:57:24.481Z,10.40
2019-06-10T23:59:55.611Z,10.43
